Time;durP1;ratioP1;P1;durP2;ratioP2;P2;SDS_P1;SDS_P2;PMS_P1;PMS_P2;Temp;Humidity;BMP_temperature;BMP_pressure;BME280_temperature;BME280_humidity;BME280_pressure;Samples;Min_cycle;Max_cycle;Signal;HPM_P1;HPM_P2
2023/12/06 00:00:24;;;;;;;14.10;9.67;;;;;;;9.26;68.55;94253.91;4992592;28;20698;-45
2023/12/06 00:02:51;;;;;;;14.07;9.50;;;;;;;9.25;68.64;94255.66;4992231;28;20220;-45
2023/12/06 00:05:18;;;;;;;14.83;9.33;;;;;;;9.25;68.52;94254.88;4992088;28;20858;-47
2023/12/06 00:07:46;;;;;;;12.20;8.80;;;;;;;9.25;68.61;94252.31;4992481;28;20248;-45
2023/12/06 00:10:12;;;;;;;14.20;9.37;;;;;;;9.24;68.48;94258.34;4992622;28;20204;-46
2023/12/06 00:12:39;;;;;;;12.73;8.70;;;;;;;9.24;68.65;94256.63;4991197;28;20247;-45
2023/12/06 00:15:07;;;;;;;12.97;9.13;;;;;;;9.24;68.88;94250.69;4992419;28;20236;-46
2023/12/06 00:17:34;;;;;;;14.27;9.30;;;;;;;9.24;68.77;94263.44;4992024;28;20192;-46
2023/12/06 00:20:01;;;;;;;14.00;9.20;;;;;;;9.24;68.75;94260.88;4992706;28;20198;-46
2023/12/06 00:22:28;;;;;;;14.00;9.97;;;;;;;9.23;68.79;94257.53;4992556;28;20217;-44
2023/12/06 00:24:56;;;;;;;14.50;9.83;;;;;;;9.21;68.84;94251.78;4992088;28;20197;-45
2023/12/06 00:27:23;;;;;;;12.70;9.23;;;;;;;9.22;68.79;94243.19;4991980;28;20204;-44
2023/12/06 00:29:50;;;;;;;11.20;8.37;;;;;;;9.23;68.65;94243.97;4991690;28;20198;-46
2023/12/06 00:32:16;;;;;;;13.70;8.40;;;;;;;9.23;68.84;94246.53;4992217;28;20640;-43
2023/12/06 00:34:43;;;;;;;12.23;9.30;;;;;;;9.22;68.81;94243.19;4992049;28;20200;-45
2023/12/06 00:37:10;;;;;;;10.47;8.30;;;;;;;8.94;68.56;94190.56;4991713;28;20243;-45
2023/12/06 00:39:37;;;;;;;13.93;8.90;;;;;;;9.22;68.89;94237.28;4991791;28;20217;-47
2023/12/06 00:42:05;;;;;;;13.97;8.60;;;;;;;9.21;68.85;94231.38;4984056;28;20225;-49
2023/12/06 00:44:32;;;;;;;12.93;8.77;;;;;;;9.21;68.90;94231.38;4991833;28;20201;-50
2023/12/06 00:46:59;;;;;;;11.73;8.23;;;;;;;9.22;68.89;94234.72;4992509;28;20212;-45
2023/12/06 00:49:25;;;;;;;13.43;8.90;;;;;;;9.19;68.93;94227.34;4991523;28;20267;-44
2023/12/06 00:51:52;;;;;;;16.20;8.23;;;;;;;9.21;68.94;94223.72;4991802;28;20664;-45
2023/12/06 00:54:19;;;;;;;11.40;8.43;;;;;;;9.16;69.12;94215.69;4991738;28;20205;-45
2023/12/06 00:56:45;;;;;;;11.97;9.07;;;;;;;9.20;69.03;94224.69;4991373;28;20196;-43
2023/12/06 00:59:14;;;;;;;12.83;8.60;;;;;;;9.20;68.93;94224.69;4991509;28;20193;-46
2023/12/06 01:01:40;;;;;;;10.60;8.50;;;;;;;9.21;68.99;94222.94;4991116;28;20228;-45
2023/12/06 01:04:07;;;;;;;11.80;8.53;;;;;;;9.19;69.01;94217.94;4991694;28;20231;-45
2023/12/06 01:06:35;;;;;;;10.77;8.67;;;;;;;9.19;69.13;94219.69;4991339;28;20201;-44
2023/12/06 01:09:03;;;;;;;15.33;8.80;;;;;;;9.19;69.17;94214.59;4991000;28;20311;-43
2023/12/06 01:11:29;;;;;;;12.23;8.13;;;;;;;9.16;69.08;94212.34;4991192;28;20576;-42
2023/12/06 01:13:56;;;;;;;12.77;8.57;;;;;;;9.17;69.08;94222.41;4991257;28;20208;-44
2023/12/06 01:16:24;;;;;;;10.67;8.60;;;;;;;9.12;68.94;94206.72;4991426;28;20192;-45
2023/12/06 01:18:51;;;;;;;12.80;9.07;;;;;;;9.16;68.99;94215.69;4991362;28;20196;-43
2023/12/06 01:21:18;;;;;;;15.37;9.43;;;;;;;9.01;69.04;94182.19;4990583;28;20633;-46
2023/12/06 01:23:45;;;;;;;14.13;9.00;;;;;;;9.10;69.21;94198.38;4991190;28;20219;-45
2023/12/06 01:26:12;;;;;;;12.77;8.67;;;;;;;8.55;69.16;94104.03;4990958;28;20263;-43
2023/12/06 01:28:39;;;;;;;13.93;8.97;;;;;;;9.08;69.09;94184.97;4991897;28;20189;-45
2023/12/06 01:31:05;;;;;;;15.37;10.00;;;;;;;9.13;69.13;94189.66;4992253;28;20181;-46
2023/12/06 01:33:34;;;;;;;12.27;8.43;;;;;;;9.13;69.06;94184.56;4991447;28;20185;-44
2023/12/06 01:36:00;;;;;;;11.03;8.40;;;;;;;9.11;69.34;94184.72;4991314;28;20189;-44
2023/12/06 01:38:27;;;;;;;14.20;9.00;;;;;;;9.07;69.38;94175.72;4990753;28;20208;-44
2023/12/06 01:40:54;;;;;;;12.57;9.43;;;;;;;9.10;69.27;94180.53;4991083;28;20197;-45
2023/12/06 01:43:21;;;;;;;11.17;8.27;;;;;;;9.10;69.66;94182.28;4990178;28;20258;-44
2023/12/06 01:45:48;;;;;;;13.87;8.50;;;;;;;9.10;69.21;94177.19;4990841;28;20748;-42
2023/12/06 01:48:16;;;;;;;13.10;9.07;;;;;;;9.09;69.40;94165.38;4990543;28;20199;-42
2023/12/06 01:50:46;;;;;;;11.53;8.03;;;;;;;8.95;69.56;94148.81;4990594;28;20185;-45
2023/12/06 01:53:13;;;;;;;15.47;9.43;;;;;;;9.08;69.24;94166.34;4990125;28;20192;-44
2023/12/06 01:55:40;;;;;;;14.20;8.87;;;;;;;9.07;69.40;94162.97;4990503;28;20188;-45
2023/12/06 01:58:08;;;;;;;14.57;9.07;;;;;;;9.07;69.35;94159.59;4990502;28;20197;-46
2023/12/06 02:00:36;;;;;;;11.97;8.43;;;;;;;8.94;69.32;94131.91;4990644;28;20197;-43
2023/12/06 02:03:03;;;;;;;13.93;8.67;;;;;;;9.03;69.42;94146.34;4990105;28;20259;-44
2023/12/06 02:05:30;;;;;;;12.20;8.73;;;;;;;9.02;69.40;94148.09;4989954;28;20283;-44
2023/12/06 02:08:00;;;;;;;11.27;7.60;;;;;;;9.05;69.41;94152.91;4990377;28;20263;-43
2023/12/06 02:10:27;;;;;;;10.77;7.10;;;;;;;9.00;69.60;94141.53;4990169;28;20208;-45
2023/12/06 02:12:53;;;;;;;10.87;7.33;;;;;;;9.07;69.48;94146.84;4989872;28;20568;-45
2023/12/06 02:15:21;;;;;;;10.20;7.33;;;;;;;9.07;69.38;94155.34;4989808;28;20204;-43
2023/12/06 02:17:49;;;;;;;10.57;7.07;;;;;;;9.04;69.40;94140.31;4990538;28;20244;-44
2023/12/06 02:20:16;;;;;;;7.63;6.40;;;;;;;9.07;69.50;94141.75;4990143;28;20270;-43
2023/12/06 02:22:43;;;;;;;9.47;6.83;;;;;;;9.07;69.40;94144.31;4990584;28;20224;-44
2023/12/06 02:25:13;;;;;;;9.90;6.60;;;;;;;9.07;69.33;94134.94;4989018;28;20197;-45
2023/12/06 02:27:41;;;;;;;8.47;5.87;;;;;;;9.07;69.48;94146.84;4990194;28;20600;-44
2023/12/06 02:30:09;;;;;;;9.23;6.47;;;;;;;9.05;69.43;94135.06;4989746;28;20276;-44
2023/12/06 02:32:35;;;;;;;7.03;5.63;;;;;;;9.08;69.75;94136.53;4990551;28;20567;-43
2023/12/06 02:35:04;;;;;;;7.03;6.13;;;;;;;9.05;69.67;94137.59;4989323;28;20648;-45
2023/12/06 02:37:31;;;;;;;10.50;6.00;;;;;;;9.05;69.55;94136.81;4989619;28;20185;-46
2023/12/06 02:40:03;;;;;;;8.50;5.80;;;;;;;9.08;69.73;94128.88;4989478;28;20200;-43
2023/12/06 02:42:31;;;;;;;6.30;5.17;;;;;;;9.09;69.54;94137.31;4989781;28;20316;-45
2023/12/06 02:44:58;;;;;;;6.43;5.83;;;;;;;9.10;69.77;94136.38;4989630;28;20193;-45
2023/12/06 02:47:26;;;;;;;8.63;6.40;;;;;;;9.07;69.66;94129.81;4990021;28;20240;-42
2023/12/06 02:49:52;;;;;;;6.83;5.40;;;;;;;9.11;69.63;94126.03;4989921;28;20275;-46
2023/12/06 02:52:19;;;;;;;6.70;5.27;;;;;;;9.12;69.62;94122.53;4989604;28;20204;-44
2023/12/06 02:54:46;;;;;;;7.03;5.63;;;;;;;9.12;69.74;94116.66;4989724;28;20197;-45
2023/12/06 02:57:13;;;;;;;5.83;5.03;;;;;;;9.13;69.67;94124.13;4971807;28;20192;-44
2023/12/06 02:59:41;;;;;;;7.47;5.17;;;;;;;9.13;69.71;94113.94;4989615;28;20181;-45
2023/12/06 03:02:08;;;;;;;5.27;4.40;;;;;;;9.15;69.68;94108.69;4989466;28;20641;-45
2023/12/06 03:04:34;;;;;;;5.13;4.33;;;;;;;9.15;69.64;94113.78;4989533;28;20185;-43
2023/12/06 03:07:01;;;;;;;6.17;4.03;;;;;;;9.15;69.67;94106.94;4988663;28;20192;-42
2023/12/06 03:09:28;;;;;;;6.30;4.60;;;;;;;9.01;69.83;94080.16;4989477;28;20216;-46
2023/12/06 03:11:54;;;;;;;5.90;4.40;;;;;;;9.17;69.69;94102.50;4989502;28;20263;-45
2023/12/06 03:14:21;;;;;;;5.57;4.43;;;;;;;9.19;69.75;94102.34;4989615;28;20691;-44
2023/12/06 03:16:49;;;;;;;4.50;4.10;;;;;;;9.18;69.73;94096.44;4989338;28;20683;-46
2023/12/06 03:19:16;;;;;;;4.20;3.60;;;;;;;9.18;69.68;94093.09;4989116;28;20182;-45
2023/12/06 03:21:43;;;;;;;4.00;3.60;;;;;;;9.19;69.72;94094.69;4989296;28;20193;-45
2023/12/06 03:24:09;;;;;;;4.77;3.73;;;;;;;9.17;69.78;94086.41;4988903;28;20312;-45
2023/12/06 03:26:36;;;;;;;5.47;3.80;;;;;;;9.17;69.87;94087.19;4989368;28;20197;-42
2023/12/06 03:29:03;;;;;;;4.10;3.67;;;;;;;9.20;69.79;94091.22;4989541;28;20193;-43
2023/12/06 03:31:30;;;;;;;4.30;3.90;;;;;;;9.22;69.85;94085.00;4989179;28;20193;-45
2023/12/06 03:33:58;;;;;;;3.73;3.33;;;;;;;9.16;69.77;94077.16;4989418;28;20192;-45
2023/12/06 03:36:25;;;;;;;4.70;3.90;;;;;;;9.15;69.89;94078.88;4989366;28;20190;-44
2023/12/06 03:38:51;;;;;;;4.20;3.50;;;;;;;9.21;70.02;94082.63;4988904;28;20181;-42
2023/12/06 03:41:19;;;;;;;3.87;3.23;;;;;;;9.20;69.82;94089.47;4989160;28;20275;-45
2023/12/06 03:43:46;;;;;;;5.00;3.60;;;;;;;9.20;69.86;94089.47;4989405;28;20229;-46
2023/12/06 03:46:12;;;;;;;4.03;3.43;;;;;;;9.19;70.10;94092.94;4989008;28;20193;-45
2023/12/06 03:48:39;;;;;;;5.10;4.00;;;;;;;9.16;70.15;94083.06;4992330;28;20189;-46
2023/12/06 03:51:08;;;;;;;3.93;3.20;;;;;;;9.17;70.06;94089.75;4992857;28;20271;-45
2023/12/06 03:53:34;;;;;;;3.87;3.47;;;;;;;9.16;70.21;94090.72;4992595;28;20193;-44
2023/12/06 03:56:01;;;;;;;3.63;3.33;;;;;;;9.20;70.29;94098.88;4992192;28;20199;-44
2023/12/06 03:58:28;;;;;;;3.33;3.03;;;;;;;9.18;70.20;94088.81;4992418;28;20185;-44
2023/12/06 04:00:55;;;;;;;3.53;3.23;;;;;;;9.19;70.22;94092.16;4992793;28;20189;-46
2023/12/06 04:03:22;;;;;;;4.13;3.47;;;;;;;9.20;70.27;94088.69;4993239;28;20260;-44
2023/12/06 04:05:49;;;;;;;3.50;3.20;;;;;;;9.21;70.10;94092.81;4992366;28;20640;-45
2023/12/06 04:08:17;;;;;;;3.70;3.00;;;;;;;9.19;70.39;94080.19;4991935;28;20212;-44
2023/12/06 04:10:44;;;;;;;3.40;3.10;;;;;;;9.21;70.29;94077.50;4992750;28;20606;-46
2023/12/06 04:13:10;;;;;;;3.23;3.03;;;;;;;9.25;70.18;94084.72;4992306;28;20560;-45
2023/12/06 04:15:39;;;;;;;3.80;3.40;;;;;;;9.26;70.14;94075.34;4992166;28;20200;-41
2023/12/06 04:18:05;;;;;;;4.23;2.97;;;;;;;9.27;70.11;94080.28;4992525;28;20192;-45
2023/12/06 04:20:32;;;;;;;2.80;2.60;;;;;;;9.30;70.01;94084.31;4992238;28;20193;-45
2023/12/06 04:22:59;;;;;;;3.13;2.83;;;;;;;9.33;70.15;94076.38;4992414;28;20225;-45
2023/12/06 04:25:27;;;;;;;3.53;3.23;;;;;;;9.35;70.07;94078.75;4991923;28;20292;-45
2023/12/06 04:27:54;;;;;;;3.50;3.17;;;;;;;9.37;70.10;94081.94;4992522;28;20259;-44
2023/12/06 04:30:21;;;;;;;3.40;3.10;;;;;;;9.38;70.22;94079.28;4991912;28;20629;-44
2023/12/06 04:32:48;;;;;;;3.07;2.87;;;;;;;9.37;69.91;94087.88;4992513;28;20193;-45
2023/12/06 04:35:14;;;;;;;3.43;3.00;;;;;;;9.41;70.03;94085.81;4991920;28;20644;-44
2023/12/06 04:37:41;;;;;;;3.03;2.83;;;;;;;9.42;70.11;94079.78;4991847;28;20201;-46
2023/12/06 04:40:09;;;;;;;3.43;3.13;;;;;;;9.32;70.15;94061.19;4992787;28;20557;-46
2023/12/06 04:42:37;;;;;;;3.53;3.10;;;;;;;9.45;70.03;94087.94;4991811;28;20668;-45
2023/12/06 04:45:05;;;;;;;2.90;2.63;;;;;;;9.44;70.26;94073.56;4984258;28;20276;-45
2023/12/06 04:47:32;;;;;;;3.53;3.10;;;;;;;9.47;70.16;94085.25;4991470;28;20193;-44
2023/12/06 04:49:58;;;;;;;2.97;2.77;;;;;;;9.47;70.20;94085.25;4991716;28;20193;-42
2023/12/06 04:52:25;;;;;;;3.47;3.17;;;;;;;9.35;70.32;94063.44;4991799;28;20720;-43
2023/12/06 04:54:52;;;;;;;3.23;2.93;;;;;;;9.49;70.35;94084.16;4992084;28;20205;-45
2023/12/06 04:57:19;;;;;;;3.63;3.20;;;;;;;9.50;70.36;94079.88;4990711;28;20193;-45
2023/12/06 04:59:47;;;;;;;3.83;3.33;;;;;;;9.52;70.19;94083.06;4991403;28;20635;-44
2023/12/06 05:02:14;;;;;;;3.20;3.00;;;;;;;9.52;70.33;94077.97;4991834;28;20189;-45
2023/12/06 05:04:40;;;;;;;4.67;3.20;;;;;;;9.54;70.29;94081.97;4991497;28;20684;-44
2023/12/06 05:07:07;;;;;;;3.23;3.03;;;;;;;9.52;70.18;94073.66;4990446;28;20205;-44
2023/12/06 05:09:35;;;;;;;3.40;3.10;;;;;;;9.57;70.09;94080.88;4990367;28;20643;-41
2023/12/06 05:12:02;;;;;;;3.60;3.30;;;;;;;9.58;70.39;94084.22;4991183;28;20263;-42
2023/12/06 05:14:28;;;;;;;3.60;3.30;;;;;;;9.33;70.36;94043.19;4991250;28;20200;-45
2023/12/06 05:16:56;;;;;;;3.23;2.93;;;;;;;9.62;70.33;94078.66;4991202;28;20182;-45
2023/12/06 05:19:23;;;;;;;3.60;3.20;;;;;;;9.63;70.40;94082.03;4991104;28;20632;-42
2023/12/06 05:21:53;;;;;;;3.93;3.63;;;;;;;9.64;70.35;94081.91;4991313;28;20212;-43
2023/12/06 05:24:20;;;;;;;4.00;3.17;;;;;;;9.67;70.39;94079.06;4990713;28;20211;-44
2023/12/06 05:26:47;;;;;;;3.17;2.87;;;;;;;9.69;70.44;94078.91;4991307;28;20193;-45
2023/12/06 05:29:14;;;;;;;3.33;3.03;;;;;;;9.71;70.38;94079.53;4991167;28;20203;-46
2023/12/06 05:31:41;;;;;;;4.20;3.60;;;;;;;9.73;70.32;94080.22;4990623;28;20193;-43
2023/12/06 05:34:09;;;;;;;3.13;2.83;;;;;;;9.75;70.21;94079.09;4990079;28;20611;-45
2023/12/06 05:36:36;;;;;;;3.50;3.20;;;;;;;9.78;70.30;94078.00;4991325;28;20579;-42
2023/12/06 05:39:05;;;;;;;3.47;3.17;;;;;;;9.79;70.48;94082.16;4990911;28;20574;-45
2023/12/06 05:41:31;;;;;;;3.57;2.97;;;;;;;9.79;70.58;94075.28;4990944;28;20234;-43
2023/12/06 05:43:58;;;;;;;4.70;3.40;;;;;;;9.82;70.42;94073.41;4990337;28;20231;-45
2023/12/06 05:46:25;;;;;;;4.27;3.60;;;;;;;9.83;70.47;94075.00;4991177;28;20196;-45
2023/12/06 05:48:52;;;;;;;4.37;3.53;;;;;;;9.84;70.48;94074.84;4990795;28;20215;-45
2023/12/06 05:51:20;;;;;;;3.40;3.10;;;;;;;9.86;70.46;94072.16;4990974;28;20185;-44
2023/12/06 05:53:46;;;;;;;4.77;3.27;;;;;;;9.86;70.37;94072.97;4990432;28;20637;-46
2023/12/06 05:56:13;;;;;;;5.57;3.63;;;;;;;9.88;70.31;94072.81;4990391;28;20672;-45
2023/12/06 05:58:40;;;;;;;3.40;3.10;;;;;;;9.89;70.31;94075.22;4978740;28;20204;-46
2023/12/06 06:01:07;;;;;;;4.07;3.67;;;;;;;9.91;70.45;94080.97;4971022;28;20205;-44
2023/12/06 06:03:34;;;;;;;4.47;3.63;;;;;;;9.93;70.38;94078.28;4989297;28;20312;-44
2023/12/06 06:06:05;;;;;;;4.20;3.80;;;;;;;9.91;70.50;94077.63;4990072;28;20238;-46
2023/12/06 06:08:34;;;;;;;8.97;3.20;;;;;;;10.24;98.57;94055.66;4990286;28;20703;-45
2023/12/06 06:11:01;;;;;;;3.73;2.77;;;;;;;11.11;100.00;94082.75;4989339;28;20271;-46
2023/12/06 06:13:29;;;;;;;3.33;2.80;;;;;;;11.59;100.00;94080.44;4990625;28;20203;-46
2023/12/06 06:15:56;;;;;;;5.70;3.13;;;;;;;11.77;97.23;94083.63;4990562;28;20587;-45
2023/12/06 06:18:23;;;;;;;4.77;3.10;;;;;;;11.85;95.20;94085.44;4990530;28;20208;-41
2023/12/06 06:20:50;;;;;;;7.23;3.20;;;;;;;11.82;93.24;94081.38;4990361;28;20288;-45
2023/12/06 06:23:17;;;;;;;3.77;3.13;;;;;;;11.75;91.29;94088.13;4990404;28;20193;-45
2023/12/06 06:25:45;;;;;;;4.23;3.60;;;;;;;11.76;89.43;94094.84;4990255;28;20191;-44
2023/12/06 06:28:12;;;;;;;5.43;2.83;;;;;;;11.75;87.96;94091.47;4995260;28;20271;-45
2023/12/06 06:30:39;;;;;;;3.80;3.20;;;;;;;11.72;87.09;94089.22;5005487;28;20208;-43
2023/12/06 06:33:05;;;;;;;9.40;3.63;;;;;;;11.68;86.08;94092.28;5009279;28;20227;-45
2023/12/06 06:35:32;;;;;;;5.20;3.10;;;;;;;11.63;85.07;94094.50;5009925;28;20651;-46
2023/12/06 06:37:59;;;;;;;4.03;3.37;;;;;;;11.56;84.47;94092.56;5008227;28;20200;-45
2023/12/06 06:40:26;;;;;;;4.57;3.37;;;;;;;11.49;83.77;94083.16;4990220;28;20691;-43
2023/12/06 06:42:55;;;;;;;4.93;3.37;;;;;;;11.43;82.66;94087.13;4989521;28;20591;-43
2023/12/06 06:45:21;;;;;;;4.10;3.27;;;;;;;11.40;82.04;94089.19;4970393;28;20212;-44
2023/12/06 06:47:48;;;;;;;4.43;3.17;;;;;;;11.36;81.61;94090.47;4987124;28;20549;-44
2023/12/06 06:50:15;;;;;;;4.07;3.40;;;;;;;11.32;81.15;94092.56;4988692;28;20229;-45
2023/12/06 06:52:42;;;;;;;3.50;3.20;;;;;;;11.27;80.57;94085.34;4989714;28;20582;-46
2023/12/06 06:55:09;;;;;;;3.83;3.53;;;;;;;11.23;80.00;94085.81;4990391;28;20589;-46
2023/12/06 06:57:37;;;;;;;4.47;3.53;;;;;;;11.21;79.73;94088.50;4989525;28;20252;-45
2023/12/06 07:00:09;;;;;;;3.83;3.37;;;;;;;11.18;79.33;94091.41;4989778;28;20564;-46
2023/12/06 07:02:38;;;;;;;4.07;3.40;;;;;;;11.16;79.04;94090.75;4989488;28;20288;-45
2023/12/06 07:05:06;;;;;;;3.47;3.17;;;;;;;11.15;78.68;94088.34;4988855;28;20217;-45
2023/12/06 07:07:32;;;;;;;3.53;3.17;;;;;;;11.14;78.43;94087.56;4989201;28;20224;-46
2023/12/06 07:10:04;;;;;;;4.27;3.30;;;;;;;11.11;78.32;94084.50;4994056;28;20705;-47
2023/12/06 07:12:32;;;;;;;3.97;3.57;;;;;;;11.12;77.82;94080.97;4989760;28;20575;-43
2023/12/06 07:14:58;;;;;;;4.93;3.40;;;;;;;11.12;77.57;94086.09;4989671;28;20185;-46
2023/12/06 07:17:27;;;;;;;4.13;3.50;;;;;;;11.11;77.35;94092.19;4989715;28;20192;-46
2023/12/06 07:19:55;;;;;;;3.50;3.20;;;;;;;11.12;77.17;94084.34;4989739;28;20673;-45
2023/12/06 07:22:22;;;;;;;5.60;3.83;;;;;;;11.17;77.43;94088.97;4990924;28;20221;-47
2023/12/06 07:24:48;;;;;;;6.40;3.73;;;;;;;11.19;77.45;94089.66;4993212;28;20225;-45
2023/12/06 07:27:15;;;;;;;4.47;3.60;;;;;;;11.11;77.66;94077.63;4993679;28;20189;-45
2023/12/06 07:29:42;;;;;;;3.73;3.43;;;;;;;11.18;77.62;94096.53;4993225;28;20215;-45
2023/12/06 07:32:10;;;;;;;4.07;3.67;;;;;;;11.19;77.72;94105.00;4993706;28;20228;-45
2023/12/06 07:34:38;;;;;;;4.40;3.80;;;;;;;11.19;77.56;94103.25;4976051;28;20205;-44
2023/12/06 07:37:05;;;;;;;4.53;3.60;;;;;;;11.18;77.38;94104.19;4993766;28;20575;-46
2023/12/06 07:39:31;;;;;;;4.27;3.73;;;;;;;11.18;77.19;94106.75;4993459;28;20715;-45
2023/12/06 07:41:58;;;;;;;10.83;3.70;;;;;;;11.45;96.77;94102.34;4993571;28;20736;-44
2023/12/06 07:44:25;;;;;;;5.57;4.00;;;;;;;12.12;100.00;94099.66;4992843;28;20232;-42
2023/12/06 07:46:52;;;;;;;8.53;5.13;;;;;;;12.78;100.00;94094.25;4993481;28;20673;-46
2023/12/06 07:49:19;;;;;;;3.43;3.13;;;;;;;13.39;99.80;94106.53;4993862;28;20188;-45
2023/12/06 07:51:47;;;;;;;8.00;3.70;;;;;;;13.68;96.53;94098.94;4993808;28;20200;-46
2023/12/06 07:54:14;;;;;;;7.10;3.60;;;;;;;13.75;93.95;94092.16;4992362;28;20182;-45
2023/12/06 07:56:41;;;;;;;6.30;3.43;;;;;;;13.72;92.27;94086.53;4990246;28;20208;-47
2023/12/06 07:59:08;;;;;;;7.90;3.80;;;;;;;13.71;90.62;94098.59;4993029;28;20189;-46
2023/12/06 08:01:36;;;;;;;5.43;3.97;;;;;;;13.38;89.04;94061.25;4990281;28;20219;-45
2023/12/06 08:04:03;;;;;;;4.30;3.80;;;;;;;13.51;87.74;94093.13;4992677;28;20584;-47
2023/12/06 08:06:32;;;;;;;5.07;3.70;;;;;;;13.24;86.22;94068.72;4989969;28;20196;-43
2023/12/06 08:09:00;;;;;;;6.07;3.50;;;;;;;13.29;85.16;94088.75;4997922;28;20232;-47
2023/12/06 08:11:27;;;;;;;5.13;4.03;;;;;;;13.12;84.22;94074.34;4992384;28;20185;-44
2023/12/06 08:13:54;;;;;;;5.23;4.33;;;;;;;13.08;83.65;94089.28;4992691;28;20196;-46
2023/12/06 08:16:20;;;;;;;7.00;4.53;;;;;;;13.01;82.85;94091.75;4992495;28;20192;-44
2023/12/06 08:18:47;;;;;;;10.40;4.13;;;;;;;12.89;82.09;94087.94;4992998;28;20618;-44
2023/12/06 08:21:14;;;;;;;4.60;4.07;;;;;;;12.83;81.46;94093.75;4993797;28;20201;-45
2023/12/06 08:23:41;;;;;;;5.67;4.17;;;;;;;12.75;80.92;94094.56;4993396;28;20212;-45
2023/12/06 08:26:10;;;;;;;5.03;4.53;;;;;;;12.67;80.58;94089.47;4992680;28;20225;-47
2023/12/06 08:28:37;;;;;;;6.13;4.23;;;;;;;12.61;80.17;94092.69;4990550;28;20192;-46
2023/12/06 08:31:04;;;;;;;4.17;3.77;;;;;;;12.53;79.77;94093.50;4992130;28;20205;-45
2023/12/06 08:33:31;;;;;;;5.60;4.07;;;;;;;12.49;79.82;94099.13;4988659;28;20569;-46
2023/12/06 08:35:58;;;;;;;4.63;4.17;;;;;;;12.43;79.27;94100.56;4993306;28;20237;-46
2023/12/06 08:38:25;;;;;;;6.33;4.50;;;;;;;12.35;78.99;94095.47;4991898;28;20216;-47
2023/12/06 08:40:51;;;;;;;6.97;4.97;;;;;;;12.32;78.83;94092.44;4992469;28;20630;-47
2023/12/06 08:43:20;;;;;;;5.57;4.63;;;;;;;12.27;78.50;94092.94;4990526;28;20192;-48
2023/12/06 08:45:47;;;;;;;5.93;4.17;;;;;;;12.27;78.37;94098.06;4991974;28;20224;-46
2023/12/06 08:48:14;;;;;;;4.53;4.13;;;;;;;12.22;78.04;94087.50;4991598;28;20200;-46
2023/12/06 08:50:40;;;;;;;5.77;4.50;;;;;;;12.19;77.71;94082.69;4992194;28;20197;-46
2023/12/06 08:53:08;;;;;;;4.63;4.07;;;;;;;12.11;77.76;94075.81;4988791;28;20193;-45
2023/12/06 08:55:35;;;;;;;5.47;4.37;;;;;;;12.13;77.50;94079.00;4988850;28;20204;-46
2023/12/06 08:58:02;;;;;;;7.47;3.77;;;;;;;12.09;77.41;94079.47;4995473;28;20192;-46
2023/12/06 09:00:32;;;;;;;5.40;4.53;;;;;;;12.09;77.32;94080.31;4990697;28;20275;-44
2023/12/06 09:03:01;;;;;;;7.93;4.33;;;;;;;12.09;77.14;94082.03;4989535;28;20177;-47
2023/12/06 09:05:29;;;;;;;4.53;3.70;;;;;;;12.07;77.17;94078.84;4991030;28;20703;-46
2023/12/06 09:07:56;;;;;;;7.47;4.00;;;;;;;12.03;76.88;94071.47;4991031;28;20225;-47
2023/12/06 09:10:23;;;;;;;4.90;4.40;;;;;;;12.05;76.82;94077.25;4991478;28;20695;-45
2023/12/06 09:12:50;;;;;;;6.77;4.27;;;;;;;12.05;76.70;94074.69;4989131;28;20200;-46
2023/12/06 09:15:17;;;;;;;5.93;4.03;;;;;;;12.05;76.47;94072.13;4990497;28;20694;-46
2023/12/06 09:17:48;;;;;;;6.43;4.23;;;;;;;12.04;76.40;94067.16;4990555;28;20280;-45
2023/12/06 09:20:16;;;;;;;4.30;3.90;;;;;;;12.03;76.46;94068.91;4990652;28;20259;-47
2023/12/06 09:22:43;;;;;;;6.30;3.97;;;;;;;11.98;76.20;94052.44;4991518;28;20198;-45
2023/12/06 09:25:11;;;;;;;4.57;3.90;;;;;;;11.99;76.10;94052.25;4989344;28;20256;-44
2023/12/06 09:27:38;;;;;;;4.87;4.17;;;;;;;11.94;76.09;94044.25;4991462;28;20273;-46
2023/12/06 09:30:08;;;;;;;4.83;4.23;;;;;;;12.02;76.08;94049.38;4988373;28;20288;-44
2023/12/06 09:32:35;;;;;;;8.17;4.83;;;;;;;12.05;76.01;94048.28;4991051;28;20208;-45
2023/12/06 09:35:05;;;;;;;5.83;4.10;;;;;;;12.07;75.78;94051.47;4995362;28;20699;-46
2023/12/06 09:37:31;;;;;;;6.77;4.10;;;;;;;12.08;75.49;94047.13;4990531;28;20217;-44
2023/12/06 09:39:58;;;;;;;4.40;4.00;;;;;;;11.97;75.65;94028.56;4990372;28;20204;-45
2023/12/06 09:42:27;;;;;;;5.03;3.90;;;;;;;12.10;75.43;94046.00;4990250;28;20197;-44
2023/12/06 09:44:56;;;;;;;4.07;3.67;;;;;;;12.11;75.09;94044.25;4981455;28;20244;-47
2023/12/06 09:47:24;;;;;;;4.33;3.77;;;;;;;12.09;75.23;94031.59;4992146;28;20281;-46
2023/12/06 09:49:51;;;;;;;5.17;3.50;;;;;;;12.03;75.05;94019.44;4989665;28;20203;-45
2023/12/06 09:52:22;;;;;;;4.33;3.80;;;;;;;12.13;74.95;94030.28;4990940;28;20204;-45
2023/12/06 09:54:50;;;;;;;5.63;4.23;;;;;;;12.20;74.78;94025.31;4990520;28;20201;-45
2023/12/06 09:57:17;;;;;;;4.27;3.83;;;;;;;12.19;74.70;94027.09;4989455;28;20206;-44
2023/12/06 09:59:44;;;;;;;5.07;3.77;;;;;;;12.21;74.57;94022.59;4989192;28;20207;-46
2023/12/06 10:02:11;;;;;;;4.37;3.60;;;;;;;12.27;74.37;94027.06;4990338;28;20195;-44
2023/12/06 10:04:38;;;;;;;4.80;4.30;;;;;;;12.29;74.37;94025.13;4989935;28;20236;-46
2023/12/06 10:07:05;;;;;;;4.07;3.63;;;;;;;12.35;74.19;94030.56;4985148;28;20249;-46
2023/12/06 10:09:33;;;;;;;4.07;3.60;;;;;;;12.23;74.01;94010.41;4989984;28;20666;-47
2023/12/06 10:12:10;;;;;;;4.77;4.00;;;;;;;12.40;73.87;94030.91;4989279;28;20193;-46
2023/12/06 10:14:37;;;;;;;4.10;3.57;;;;;;;12.42;73.90;94022.06;4989413;28;20203;-45
2023/12/06 10:17:04;;;;;;;4.40;4.00;;;;;;;12.43;73.85;94015.94;4989524;28;20200;-47
2023/12/06 10:19:31;;;;;;;5.20;3.77;;;;;;;12.07;73.62;93953.28;4989307;28;20205;-45
2023/12/06 10:22:00;;;;;;;4.07;3.77;;;;;;;12.55;73.62;94021.53;4988652;28;20216;-47
2023/12/06 10:24:28;;;;;;;4.13;3.50;;;;;;;12.60;73.40;94018.47;4988301;28;20204;-46
2023/12/06 10:27:03;;;;;;;4.63;4.13;;;;;;;12.65;73.27;94017.03;4987761;28;20192;-45
2023/12/06 10:29:31;;;;;;;5.03;3.33;;;;;;;12.68;73.10;94013.31;4987623;28;20629;-46
2023/12/06 10:31:58;;;;;;;3.63;3.23;;;;;;;12.68;73.25;94010.75;4991264;28;20252;-45
2023/12/06 10:34:27;;;;;;;10.67;3.70;;;;;;;12.73;73.15;94008.47;4989594;28;20664;-46
2023/12/06 10:36:55;;;;;;;4.27;3.63;;;;;;;12.69;73.04;93994.38;4989403;28;20196;-44
2023/12/06 10:39:23;;;;;;;3.50;3.10;;;;;;;12.78;73.11;94012.16;4990181;28;20229;-45
2023/12/06 10:41:55;;;;;;;4.93;3.37;;;;;;;12.68;72.94;93987.66;4989185;28;20196;-45
2023/12/06 10:44:23;;;;;;;3.60;3.30;;;;;;;12.79;72.85;94006.03;4988071;28;20193;-45
2023/12/06 10:46:50;;;;;;;3.93;3.40;;;;;;;12.77;72.79;94002.03;4992812;28;20252;-47
2023/12/06 10:49:18;;;;;;;4.60;3.63;;;;;;;12.76;72.52;93995.31;4972138;28;20620;-46
2023/12/06 10:51:46;;;;;;;3.63;3.33;;;;;;;12.77;72.68;94002.81;4989261;28;20204;-45
2023/12/06 10:54:14;;;;;;;4.57;3.17;;;;;;;12.71;72.47;93985.56;4989694;28;20201;-44
2023/12/06 10:56:43;;;;;;;4.07;3.30;;;;;;;12.75;72.58;93996.28;4990332;28;20336;-45
2023/12/06 10:59:11;;;;;;;3.33;2.63;;;;;;;12.74;72.52;93994.69;4989401;28;20200;-47
2023/12/06 11:01:40;;;;;;;3.40;3.10;;;;;;;12.66;72.52;93984.47;4986630;28;20196;-46
2023/12/06 11:04:09;;;;;;;3.37;3.07;;;;;;;12.56;72.45;93976.94;4985548;28;20192;-46
2023/12/06 11:06:44;;;;;;;3.93;3.53;;;;;;;12.67;72.33;93984.28;4987948;28;20259;-45
2023/12/06 11:09:26;;;;;;;4.20;3.30;;;;;;;12.66;72.48;93998.09;4985501;28;20227;-45
2023/12/06 11:12:03;;;;;;;3.80;3.17;;;;;;;12.65;72.23;93993.09;4986595;28;20205;-45
2023/12/06 11:14:50;;;;;;;3.00;2.67;;;;;;;12.63;72.15;93993.28;4989055;28;20200;-45
2023/12/06 11:17:31;;;;;;;2.80;2.60;;;;;;;12.54;72.12;93978.91;4987096;28;20189;-45
2023/12/06 11:19:58;;;;;;;3.07;2.77;;;;;;;12.62;72.26;93989.13;4983504;28;20684;-45
2023/12/06 11:22:26;;;;;;;3.43;2.80;;;;;;;12.64;72.31;93987.19;4986461;28;20215;-45
2023/12/06 11:24:53;;;;;;;3.43;3.03;;;;;;;12.66;72.01;93992.97;4990982;28;20207;-46
2023/12/06 11:27:21;;;;;;;3.53;3.23;;;;;;;12.63;72.12;93979.66;4989058;28;20524;-44
2023/12/06 11:29:49;;;;;;;3.20;2.90;;;;;;;12.70;72.26;93986.53;4989859;28;20208;-43
2023/12/06 11:32:16;;;;;;;3.03;2.73;;;;;;;12.73;71.89;93985.38;4998579;28;20221;-44
2023/12/06 11:34:44;;;;;;;4.00;3.60;;;;;;;12.73;71.72;93982.81;4989489;28;20193;-46
2023/12/06 11:37:19;;;;;;;4.83;3.13;;;;;;;12.74;71.77;93982.66;4989301;28;20564;-46